Time;durP1;ratioP1;P1;durP2;ratioP2;P2;SDS_P1;SDS_P2;PMS_P1;PMS_P2;Temp;Humidity;BMP_temperature;BMP_pressure;BME280_temperature;BME280_humidity;BME280_pressure;Samples;Min_cycle;Max_cycle;Signal;HPM_P1;HPM_P2
2023/05/28 00:01:36;;;;;;;7.47;3.25;;;;;;;;;;5044606;28;20512;-59
2023/05/28 00:04:02;;;;;;;11.02;3.20;;;;;;;;;;5044661;28;20028;-59
2023/05/28 00:06:27;;;;;;;8.60;3.25;;;;;;;;;;5044851;28;20065;-59
2023/05/28 00:08:52;;;;;;;7.72;3.20;;;;;;;;;;5044826;28;20029;-59
2023/05/28 00:11:18;;;;;;;8.30;3.22;;;;;;;;;;4992367;28;20033;-58
2023/05/28 00:13:43;;;;;;;7.00;3.20;;;;;;;;;;5044392;28;20036;-59
2023/05/28 00:16:08;;;;;;;10.48;3.33;;;;;;;;;;5044231;28;20029;-59
2023/05/28 00:18:34;;;;;;;8.23;3.60;;;;;;;;;;5026970;28;20017;-57
2023/05/28 00:21:00;;;;;;;12.00;3.85;;;;;;;;;;5044634;28;20017;-59
2023/05/28 00:23:25;;;;;;;6.32;3.15;;;;;;;;;;5026617;28;20365;-59
2023/05/28 00:25:51;;;;;;;8.70;3.55;;;;;;;;;;5044352;28;20040;-58
2023/05/28 00:28:16;;;;;;;9.15;3.45;;;;;;;;;;5044084;28;20025;-60
2023/05/28 00:30:42;;;;;;;9.70;3.10;;;;;;;;;;5008892;28;20373;-59
2023/05/28 00:33:07;;;;;;;14.45;3.22;;;;;;;;;;5044227;28;20025;-58
2023/05/28 00:35:32;;;;;;;9.25;3.63;;;;;;;;;;5043860;28;20496;-60
2023/05/28 00:37:57;;;;;;;7.20;3.22;;;;;;;;;;5043809;28;20045;-60
2023/05/28 00:40:23;;;;;;;8.40;3.22;;;;;;;;;;4992405;28;20025;-55
2023/05/28 00:42:48;;;;;;;10.23;3.13;;;;;;;;;;5043586;28;20036;-58
2023/05/28 00:45:14;;;;;;;13.38;3.35;;;;;;;;;;5026063;28;20500;-59
2023/05/28 00:47:40;;;;;;;9.88;4.00;;;;;;;;;;5043958;28;20021;-59
2023/05/28 00:50:06;;;;;;;8.35;3.83;;;;;;;;;;5044512;28;20380;-60
2023/05/28 00:52:31;;;;;;;7.97;3.25;;;;;;;;;;5043930;28;20025;-59
2023/05/28 00:54:57;;;;;;;9.27;3.33;;;;;;;;;;5043625;28;20032;-59
2023/05/28 00:57:23;;;;;;;10.43;3.60;;;;;;;;;;5025745;28;20031;-59
2023/05/28 00:59:49;;;;;;;7.93;3.30;;;;;;;;;;5043844;28;20044;-58
2023/05/28 01:02:15;;;;;;;7.43;3.35;;;;;;;;;;5043379;28;20033;-59
2023/05/28 01:04:40;;;;;;;10.88;3.50;;;;;;;;;;5043980;28;20036;-58
2023/05/28 01:07:06;;;;;;;7.97;3.35;;;;;;;;;;5043768;28;20048;-59
2023/05/28 01:09:31;;;;;;;14.05;3.60;;;;;;;;;;5043443;28;20497;-58
2023/05/28 01:11:56;;;;;;;10.00;3.95;;;;;;;;;;5044074;28;20020;-59
2023/05/28 01:14:22;;;;;;;5.70;2.90;;;;;;;;;;5043700;28;20439;-58
2023/05/28 01:16:48;;;;;;;10.07;3.70;;;;;;;;;;5043549;28;20025;-58
2023/05/28 01:19:16;;;;;;;10.20;3.92;;;;;;;;;;5043593;28;20032;-58
2023/05/28 01:21:43;;;;;;;6.60;3.33;;;;;;;;;;5025531;28;20017;-59
2023/05/28 01:24:10;;;;;;;10.07;3.38;;;;;;;;;;5043734;28;20362;-59
2023/05/28 01:26:35;;;;;;;6.93;3.10;;;;;;;;;;5043684;28;20025;-59
2023/05/28 01:29:00;;;;;;;11.65;3.35;;;;;;;;;;5043655;28;20344;-59
2023/05/28 01:31:26;;;;;;;11.07;3.60;;;;;;;;;;5007419;28;20032;-59
2023/05/28 01:33:51;;;;;;;9.30;2.88;;;;;;;;;;5043339;28;20036;-59
2023/05/28 01:36:25;;;;;;;14.00;4.38;;;;;;;;;;5043238;28;20512;-59
2023/05/28 01:38:52;;;;;;;12.57;4.10;;;;;;;;;;5043178;28;20033;-58
2023/05/28 01:41:18;;;;;;;10.32;3.78;;;;;;;;;;5043142;28;20021;-59
2023/05/28 01:43:44;;;;;;;8.95;3.55;;;;;;;;;;5043144;28;20472;-57
2023/05/28 01:46:09;;;;;;;11.60;3.42;;;;;;;;;;5043123;28;20048;-59
2023/05/28 01:48:36;;;;;;;6.80;2.78;;;;;;;;;;5043201;28;20484;-59
2023/05/28 01:51:01;;;;;;;10.30;3.42;;;;;;;;;;5043010;28;20351;-58
2023/05/28 01:53:26;;;;;;;8.27;3.38;;;;;;;;;;5043065;28;20368;-58
2023/05/28 01:55:51;;;;;;;10.82;3.25;;;;;;;;;;5042577;28;20029;-59
2023/05/28 01:58:17;;;;;;;6.38;3.22;;;;;;;;;;5007323;28;20543;-59
2023/05/28 02:00:46;;;;;;;20.88;3.40;;;;;;;;;;5042912;28;20036;-57
2023/05/28 02:03:11;;;;;;;10.25;3.90;;;;;;;;;;5043266;28;20020;-58
2023/05/28 02:05:37;;;;;;;5.95;2.88;;;;;;;;;;5042614;28;20473;-60
2023/05/28 02:08:02;;;;;;;12.32;3.38;;;;;;;;;;5042620;28;20021;-58
2023/05/28 02:10:27;;;;;;;9.65;3.63;;;;;;;;;;5042822;28;20642;-59
2023/05/28 02:12:52;;;;;;;11.20;3.13;;;;;;;;;;5043402;28;20469;-59
2023/05/28 02:15:19;;;;;;;5.55;2.95;;;;;;;;;;5046952;28;20040;-58
2023/05/28 02:17:45;;;;;;;6.07;3.53;;;;;;;;;;5046802;28;20104;-59
2023/05/28 02:20:11;;;;;;;11.60;3.42;;;;;;;;;;5029301;28;20121;-59
2023/05/28 02:22:37;;;;;;;10.95;3.55;;;;;;;;;;5047011;28;20021;-58
2023/05/28 02:25:02;;;;;;;13.20;3.55;;;;;;;;;;5046925;28;20037;-59
2023/05/28 02:27:28;;;;;;;8.50;3.20;;;;;;;;;;5011209;28;20037;-55
2023/05/28 02:29:53;;;;;;;16.67;3.42;;;;;;;;;;5046704;28;20468;-57
2023/05/28 02:32:18;;;;;;;5.90;2.80;;;;;;;;;;5046990;28;20060;-58
2023/05/28 02:34:44;;;;;;;7.97;3.10;;;;;;;;;;5046398;28;20397;-59
2023/05/28 02:37:09;;;;;;;7.15;2.50;;;;;;;;;;5028720;28;20035;-59
2023/05/28 02:39:34;;;;;;;11.43;3.60;;;;;;;;;;5045923;28;20815;-58
2023/05/28 02:42:00;;;;;;;8.25;3.10;;;;;;;;;;5046509;28;20025;-59
2023/05/28 02:44:26;;;;;;;13.20;3.78;;;;;;;;;;5046736;28;20032;-59
2023/05/28 02:46:51;;;;;;;8.35;2.60;;;;;;;;;;5046467;28;20021;-59
2023/05/28 02:49:16;;;;;;;9.18;3.63;;;;;;;;;;5046295;28;20040;-60
2023/05/28 02:51:42;;;;;;;8.20;2.80;;;;;;;;;;5046127;28;20048;-59
2023/05/28 02:54:07;;;;;;;10.68;3.60;;;;;;;;;;5046154;28;20060;-59
2023/05/28 02:56:32;;;;;;;8.98;3.13;;;;;;;;;;5045988;28;20365;-59
2023/05/28 02:58:58;;;;;;;10.05;3.60;;;;;;;;;;5046390;28;20052;-55
2023/05/28 03:01:23;;;;;;;13.25;3.60;;;;;;;;;;5046062;28;20033;-58
2023/05/28 03:03:48;;;;;;;8.00;3.10;;;;;;;;;;5046032;28;20061;-59
2023/05/28 03:06:14;;;;;;;8.93;2.85;;;;;;;;;;5046401;28;20499;-59
2023/05/28 03:08:40;;;;;;;6.95;3.22;;;;;;;;;;4994533;28;20025;-58
2023/05/28 03:11:05;;;;;;;9.57;3.38;;;;;;;;;;5045505;28;20017;-58
2023/05/28 03:13:30;;;;;;;8.68;3.42;;;;;;;;;;5046263;28;20079;-60
2023/05/28 03:15:56;;;;;;;10.35;3.25;;;;;;;;;;5046054;28;20029;-60
2023/05/28 03:18:21;;;;;;;8.90;3.30;;;;;;;;;;5046221;28;20044;-60
2023/05/28 03:20:47;;;;;;;7.93;3.20;;;;;;;;;;5045903;28;20106;-59
2023/05/28 03:23:12;;;;;;;10.73;3.15;;;;;;;;;;5046246;28;20021;-58
2023/05/28 03:25:38;;;;;;;6.78;2.85;;;;;;;;;;5009180;28;20078;-58
2023/05/28 03:28:03;;;;;;;7.28;3.47;;;;;;;;;;5045547;28;20025;-59
2023/05/28 03:30:28;;;;;;;9.23;3.40;;;;;;;;;;5046011;28;20031;-58
2023/05/28 03:32:54;;;;;;;9.90;3.17;;;;;;;;;;5045134;28;20021;-59
2023/05/28 03:35:19;;;;;;;13.80;3.05;;;;;;;;;;5045438;28;20029;-56
2023/05/28 03:37:45;;;;;;;7.10;3.20;;;;;;;;;;5045041;28;20052;-59
2023/05/28 03:40:10;;;;;;;9.95;3.63;;;;;;;;;;5045390;28;20021;-59
2023/05/28 03:42:36;;;;;;;12.13;4.28;;;;;;;;;;5045068;28;20499;-59
2023/05/28 03:45:01;;;;;;;12.45;3.60;;;;;;;;;;5045181;28;20524;-57
2023/05/28 03:47:30;;;;;;;10.07;3.50;;;;;;;;;;5009419;28;20032;-58
2023/05/28 03:49:56;;;;;;;11.98;4.13;;;;;;;;;;5044878;28;20021;-59
2023/05/28 03:52:21;;;;;;;16.45;3.42;;;;;;;;;;5045255;28;20397;-58
2023/05/28 03:54:46;;;;;;;10.60;3.20;;;;;;;;;;5044755;28;20120;-58
2023/05/28 03:57:12;;;;;;;8.25;2.90;;;;;;;;;;5027040;28;20649;-58
2023/05/28 03:59:37;;;;;;;5.88;3.10;;;;;;;;;;5044504;28;20496;-58
2023/05/28 04:02:02;;;;;;;13.68;3.50;;;;;;;;;;5045359;28;20024;-59
2023/05/28 04:04:27;;;;;;;7.53;2.97;;;;;;;;;;5027022;28;20021;-59
2023/05/28 04:06:53;;;;;;;6.38;3.38;;;;;;;;;;5044811;28;20098;-59
2023/05/28 04:09:18;;;;;;;9.63;3.00;;;;;;;;;;5044843;28;20013;-57
2023/05/28 04:11:44;;;;;;;8.27;3.38;;;;;;;;;;5045162;28;20638;-57
2023/05/28 04:14:09;;;;;;;9.93;3.80;;;;;;;;;;5044747;28;20120;-59
2023/05/28 04:16:34;;;;;;;10.40;3.30;;;;;;;;;;5045152;28;20044;-57
2023/05/28 04:19:00;;;;;;;6.82;2.63;;;;;;;;;;5044611;28;20033;-59
2023/05/28 04:21:25;;;;;;;6.53;3.05;;;;;;;;;;5026638;28;20033;-60
2023/05/28 04:23:51;;;;;;;9.05;3.63;;;;;;;;;;5025499;28;20036;-56
2023/05/28 04:26:16;;;;;;;9.32;3.28;;;;;;;;;;5044058;28;20056;-59
2023/05/28 04:28:41;;;;;;;9.95;3.42;;;;;;;;;;5044479;28;20444;-60
2023/05/28 04:31:07;;;;;;;7.03;3.20;;;;;;;;;;5044729;28;20028;-59
2023/05/28 04:33:32;;;;;;;14.35;3.60;;;;;;;;;;5044499;28;20503;-60
2023/05/28 04:35:58;;;;;;;10.15;3.20;;;;;;;;;;5043883;28;20037;-60
2023/05/28 04:38:24;;;;;;;8.32;2.80;;;;;;;;;;5043816;28;20021;-60
2023/05/28 04:40:50;;;;;;;7.70;2.90;;;;;;;;;;5044349;28;20309;-59
2023/05/28 04:43:18;;;;;;;7.45;3.00;;;;;;;;;;5044585;28;20024;-58
2023/05/28 04:45:43;;;;;;;9.70;3.07;;;;;;;;;;5044358;28;20032;-59
2023/05/28 04:48:09;;;;;;;7.68;2.92;;;;;;;;;;5043670;28;20017;-59
2023/05/28 04:50:34;;;;;;;11.32;2.92;;;;;;;;;;5044000;28;20075;-59
2023/05/28 04:53:00;;;;;;;4.82;2.95;;;;;;;;;;5024889;28;20120;-59
2023/05/28 04:55:25;;;;;;;11.93;3.22;;;;;;;;;;5043711;28;20025;-59
2023/05/28 04:57:51;;;;;;;14.85;3.10;;;;;;;;;;5043330;28;20021;-60
2023/05/28 05:00:16;;;;;;;8.82;3.10;;;;;;;;;;5043763;28;20025;-59
2023/05/28 05:02:41;;;;;;;9.82;3.05;;;;;;;;;;5043848;28;20444;-59
2023/05/28 05:05:07;;;;;;;7.88;3.38;;;;;;;;;;5007894;28;20036;-53
2023/05/28 05:07:34;;;;;;;12.20;3.63;;;;;;;;;;5043997;28;20528;-59
2023/05/28 05:09:59;;;;;;;12.50;3.13;;;;;;;;;;5043474;28;20021;-59
2023/05/28 05:12:25;;;;;;;8.38;2.88;;;;;;;;;;5043949;28;20020;-60
2023/05/28 05:14:50;;;;;;;13.43;3.05;;;;;;;;;;5043483;28;20040;-58
2023/05/28 05:17:15;;;;;;;10.77;3.17;;;;;;;;;;5043620;28;20365;-59
2023/05/28 05:19:40;;;;;;;8.48;3.90;;;;;;;;;;5043625;28;20248;-60
2023/05/28 05:22:06;;;;;;;14.20;4.30;;;;;;;;;;5024527;28;20486;-58
2023/05/28 05:24:31;;;;;;;7.50;2.97;;;;;;;;;;5043400;28;20029;-59
2023/05/28 05:26:57;;;;;;;9.27;3.23;;;;;;;;;;5043617;28;20066;-58
2023/05/28 05:29:22;;;;;;;8.25;3.30;;;;;;;;;;5043783;28;20345;-59
2023/05/28 05:31:47;;;;;;;8.93;3.10;;;;;;;;;;5043148;28;20032;-60
2023/05/28 05:34:13;;;;;;;7.43;2.83;;;;;;;;;;5043309;28;20257;-60
2023/05/28 05:36:38;;;;;;;6.68;2.90;;;;;;;;;;5043142;28;20108;-58
2023/05/28 05:39:03;;;;;;;4.80;3.07;;;;;;;;;;5043456;28;20438;-59
2023/05/28 05:41:29;;;;;;;8.68;2.80;;;;;;;;;;5043102;28;20247;-60
2023/05/28 05:43:54;;;;;;;10.30;3.28;;;;;;;;;;5042814;28;20522;-59
2023/05/28 05:46:19;;;;;;;8.20;3.42;;;;;;;;;;5043066;28;20025;-60
2023/05/28 05:48:45;;;;;;;10.52;3.40;;;;;;;;;;5042865;28;20452;-60
2023/05/28 05:51:16;;;;;;;7.10;3.17;;;;;;;;;;5043044;28;20415;-59
2023/05/28 05:53:42;;;;;;;6.72;2.95;;;;;;;;;;5043306;28;20252;-60
2023/05/28 05:56:07;;;;;;;10.07;3.53;;;;;;;;;;5043043;28;20459;-59
2023/05/28 05:58:33;;;;;;;15.77;3.33;;;;;;;;;;5042853;28;20021;-59
2023/05/28 06:00:58;;;;;;;9.70;3.67;;;;;;;;;;4991037;28;21306;-59
2023/05/28 06:03:24;;;;;;;7.13;3.20;;;;;;;;;;5042630;28;20021;-60
2023/05/28 06:05:49;;;;;;;8.40;3.90;;;;;;;;;;5043168;28;20084;-56
2023/05/28 06:08:15;;;;;;;6.35;2.80;;;;;;;;;;5007575;28;20250;-60
2023/05/28 06:10:41;;;;;;;7.28;3.03;;;;;;;;;;5042995;28;20405;-60
2023/05/28 06:13:06;;;;;;;7.55;3.08;;;;;;;;;;5043102;28;20694;-59
2023/05/28 06:15:31;;;;;;;10.43;3.20;;;;;;;;;;5042988;28;20033;-58
2023/05/28 06:17:58;;;;;;;11.55;2.50;;;;;;;;;;5043341;28;20115;-57
2023/05/28 06:20:23;;;;;;;9.70;3.03;;;;;;;;;;5042948;28;20031;-59
2023/05/28 06:22:50;;;;;;;6.00;3.05;;;;;;;;;;5042932;28;20505;-60
2023/05/28 06:25:16;;;;;;;9.77;4.78;;;;;;;;;;5043197;28;20029;-59
2023/05/28 06:27:41;;;;;;;8.88;3.17;;;;;;;;;;5043250;28;20067;-58
2023/05/28 06:30:07;;;;;;;8.93;3.15;;;;;;;;;;5042614;28;20465;-59
2023/05/28 06:32:32;;;;;;;7.55;3.03;;;;;;;;;;5043057;28;20534;-58
2023/05/28 06:34:58;;;;;;;6.05;3.08;;;;;;;;;;5042821;28;20057;-60
2023/05/28 06:37:23;;;;;;;10.90;3.30;;;;;;;;;;4990911;28;20083;-58
2023/05/28 06:39:48;;;;;;;6.80;3.03;;;;;;;;;;5043062;28;20048;-56
2023/05/28 06:42:14;;;;;;;6.53;3.03;;;;;;;;;;5043139;28;20029;-59
2023/05/28 06:44:39;;;;;;;15.77;3.33;;;;;;;;;;5042789;28;20021;-60
2023/05/28 06:47:05;;;;;;;8.18;2.60;;;;;;;;;;5043084;28;20028;-59
2023/05/28 06:49:30;;;;;;;11.50;3.88;;;;;;;;;;5043235;28;20063;-59
2023/05/28 06:51:55;;;;;;;23.98;3.55;;;;;;;;;;5042338;28;20469;-59
2023/05/28 06:54:21;;;;;;;7.30;3.03;;;;;;;;;;5042784;28;20590;-57
2023/05/28 06:56:46;;;;;;;7.95;2.63;;;;;;;;;;5042737;28;20242;-59
2023/05/28 06:59:11;;;;;;;10.23;3.30;;;;;;;;;;5043031;28;20135;-58
2023/05/28 07:01:37;;;;;;;10.77;2.88;;;;;;;;;;5046083;28;20755;-59
2023/05/28 07:04:02;;;;;;;5.53;2.38;;;;;;;;;;4994668;28;20712;-59
2023/05/28 07:06:27;;;;;;;7.22;3.08;;;;;;;;;;5046678;28;20067;-60
2023/05/28 07:08:53;;;;;;;8.23;3.07;;;;;;;;;;5046332;28;20388;-60
2023/05/28 07:11:18;;;;;;;5.53;3.47;;;;;;;;;;5046399;28;20300;-60
2023/05/28 07:13:44;;;;;;;9.88;3.20;;;;;;;;;;5046154;28;20254;-59
2023/05/28 07:16:10;;;;;;;9.07;3.30;;;;;;;;;;5046266;28;20132;-60
2023/05/28 07:18:35;;;;;;;8.82;3.20;;;;;;;;;;5045971;28;20488;-59
2023/05/28 07:21:01;;;;;;;5.10;3.10;;;;;;;;;;5045705;28;20370;-60
2023/05/28 07:23:27;;;;;;;9.15;3.78;;;;;;;;;;5045923;28;20282;-60
2023/05/28 07:25:52;;;;;;;10.02;3.13;;;;;;;;;;5046053;28;20330;-58
2023/05/28 07:28:17;;;;;;;7.35;2.75;;;;;;;;;;5045775;28;20495;-60
2023/05/28 07:30:42;;;;;;;10.00;3.63;;;;;;;;;;5046149;28;20198;-60
2023/05/28 07:33:08;;;;;;;10.57;3.30;;;;;;;;;;5045597;28;20238;-60
2023/05/28 07:35:33;;;;;;;7.88;3.05;;;;;;;;;;5045540;28;20903;-59
2023/05/28 07:37:59;;;;;;;9.57;3.60;;;;;;;;;;5045897;28;20025;-59
2023/05/28 07:40:24;;;;;;;10.93;3.22;;;;;;;;;;5046028;28;20098;-57
2023/05/28 07:42:49;;;;;;;6.53;3.10;;;;;;;;;;5045754;28;20032;-60
2023/05/28 07:45:15;;;;;;;10.95;2.92;;;;;;;;;;5045193;28;20385;-59
2023/05/28 07:47:40;;;;;;;8.05;3.17;;;;;;;;;;5046034;28;20506;-60
2023/05/28 07:50:06;;;;;;;5.70;2.90;;;;;;;;;;5045861;28;20764;-60
2023/05/28 07:52:31;;;;;;;8.60;3.00;;;;;;;;;;5045558;28;20112;-58
2023/05/28 07:54:58;;;;;;;10.77;3.58;;;;;;;;;;5027616;28;20037;-59
2023/05/28 07:57:24;;;;;;;8.50;2.53;;;;;;;;;;5045508;28;20432;-60
2023/05/28 07:59:49;;;;;;;9.38;2.95;;;;;;;;;;5045240;28;20361;-59
2023/05/28 08:02:14;;;;;;;8.25;3.13;;;;;;;;;;5045273;28;20032;-58
2023/05/28 08:04:39;;;;;;;7.50;2.87;;;;;;;;;;5044963;28;20044;-60
2023/05/28 08:07:05;;;;;;;11.98;3.55;;;;;;;;;;5044860;28;20266;-60
2023/05/28 08:09:31;;;;;;;10.43;3.30;;;;;;;;;;5045396;28;20017;-59
2023/05/28 08:11:56;;;;;;;7.97;3.70;;;;;;;;;;5044835;28;20443;-60
2023/05/28 08:14:21;;;;;;;7.03;3.30;;;;;;;;;;5045130;28;20338;-60
2023/05/28 08:16:47;;;;;;;7.87;2.90;;;;;;;;;;5045108;28;20246;-60
2023/05/28 08:19:12;;;;;;;7.50;3.00;;;;;;;;;;5009500;28;20737;-58
2023/05/28 08:21:37;;;;;;;8.77;3.30;;;;;;;;;;5044938;28;20025;-60
2023/05/28 08:24:02;;;;;;;8.10;2.90;;;;;;;;;;5044861;28;20384;-58
2023/05/28 08:26:28;;;;;;;8.27;2.70;;;;;;;;;;5044665;28;20392;-60
2023/05/28 08:28:53;;;;;;;10.70;3.73;;;;;;;;;;5044605;28;20717;-60
2023/05/28 08:31:18;;;;;;;8.10;3.80;;;;;;;;;;5044792;28;20250;-60
2023/05/28 08:33:43;;;;;;;10.52;3.45;;;;;;;;;;5044640;28;20112;-60
2023/05/28 08:36:10;;;;;;;11.43;4.10;;;;;;;;;;5044476;28;20206;-60
2023/05/28 08:38:35;;;;;;;5.00;2.80;;;;;;;;;;5044652;28;20017;-60
2023/05/28 08:41:01;;;;;;;6.30;3.10;;;;;;;;;;5044964;28;20445;-60
2023/05/28 08:43:27;;;;;;;7.80;3.42;;;;;;;;;;5044250;28;20024;-60
2023/05/28 08:45:53;;;;;;;9.52;3.50;;;;;;;;;;5044616;28;20053;-60
2023/05/28 08:48:19;;;;;;;9.70;3.95;;;;;;;;;;5044674;28;20032;-60
2023/05/28 08:50:48;;;;;;;7.85;3.38;;;;;;;;;;5044082;28;20468;-59
2023/05/28 08:53:13;;;;;;;;;;;;;;;;;;5044794;28;20068;-58
2023/05/28 08:55:38;;;;;;;6.20;3.72;;;;;;;;;;5044136;28;20276;-59
2023/05/28 08:58:03;;;;;;;4.47;3.10;;;;;;;;;;5043945;28;20028;-59
2023/05/28 09:00:29;;;;;;;10.40;3.27;;;;;;;;;;5044512;28;20242;-61
2023/05/28 09:02:55;;;;;;;9.48;3.20;;;;;;;;;;5044869;28;20605;-60
2023/05/28 09:05:20;;;;;;;9.27;3.20;;;;;;;;;;5044057;28;20107;-60
2023/05/28 09:07:46;;;;;;;12.23;3.90;;;;;;;;;;5044183;28;20512;-60
2023/05/28 09:10:11;;;;;;;6.90;3.17;;;;;;;;;;5044074;28;20009;-60
2023/05/28 09:12:40;;;;;;;6.00;3.22;;;;;;;;;;5044259;28;20092;-59
2023/05/28 09:15:06;;;;;;;11.30;3.38;;;;;;;;;;5044193;28;20483;-60
2023/05/28 09:17:32;;;;;;;6.55;3.55;;;;;;;;;;4992217;28;20021;-59
2023/05/28 09:19:59;;;;;;;5.93;3.35;;;;;;;;;;5044015;28;20416;-60
2023/05/28 09:22:25;;;;;;;9.15;3.38;;;;;;;;;;5043789;28;20025;-60
2023/05/28 09:24:50;;;;;;;5.10;3.70;;;;;;;;;;5044157;28;20017;-60
2023/05/28 09:27:19;;;;;;;6.50;3.83;;;;;;;;;;5044484;28;20704;-60
2023/05/28 09:29:44;;;;;;;11.57;4.32;;;;;;;;;;5043992;28;20067;-60
2023/05/28 09:32:09;;;;;;;7.03;3.70;;;;;;;;;;5043778;28;20020;-60
2023/05/28 09:34:40;;;;;;;6.73;4.07;;;;;;;;;;5043931;28;20602;-60
2023/05/28 09:37:06;;;;;;;7.15;3.90;;;;;;;;;;5044162;28;20639;-60
2023/05/28 09:39:32;;;;;;;5.93;3.70;;;;;;;;;;5044250;28;20017;-60
2023/05/28 09:42:11;;;;;;;9.32;4.03;;;;;;;;;;5043602;28;20021;-58
2023/05/28 09:44:37;;;;;;;9.15;3.75;;;;;;;;;;5026024;28;20029;-58
2023/05/28 09:47:21;;;;;;;9.65;3.92;;;;;;;;;;5044129;28;20029;-60
2023/05/28 09:49:47;;;;;;;4.90;3.70;;;;;;;;;;5025725;28;20365;-60
2023/05/28 09:52:22;;;;;;;8.38;4.20;;;;;;;;;;5043177;28;20032;-59
2023/05/28 09:54:55;;;;;;;15.23;4.60;;;;;;;;;;5043244;28;20461;-60
2023/05/28 09:57:28;;;;;;;7.53;3.75;;;;;;;;;;5043534;28;20017;-60
2023/05/28 09:59:55;;;;;;;5.90;3.80;;;;;;;;;;5043739;28;20033;-61
2023/05/28 10:02:20;;;;;;;7.55;3.90;;;;;;;;;;5043717;28;20025;-58
2023/05/28 10:04:48;;;;;;;9.10;4.00;;;;;;;;;;5043216;28;20082;-60
2023/05/28 10:07:13;;;;;;;9.80;4.57;;;;;;;;;;5043666;28;20704;-60
2023/05/28 10:09:39;;;;;;;7.43;4.07;;;;;;;;;;5043559;28;20017;-60
2023/05/28 10:12:09;;;;;;;8.43;4.38;;;;;;;;;;5043356;28;20029;-60
2023/05/28 10:14:35;;;;;;;12.95;4.10;;;;;;;;;;5043296;28;20376;-60
2023/05/28 10:17:00;;;;;;;5.70;4.10;;;;;;;;;;5043381;28;20384;-60
2023/05/28 10:19:26;;;;;;;7.50;4.37;;;;;;;;;;5043126;28;20025;-60
2023/05/28 10:21:52;;;;;;;11.48;4.75;;;;;;;;;;5043238;28;20052;-60
2023/05/28 10:24:18;;;;;;;8.50;4.68;;;;;;;;;;5043352;28;20054;-61
2023/05/28 10:26:43;;;;;;;9.10;4.93;;;;;;;;;;5043215;28;20483;-59
2023/05/28 10:29:08;;;;;;;8.25;4.78;;;;;;;;;;5043576;28;20050;-60
2023/05/28 10:31:34;;;;;;;6.70;4.27;;;;;;;;;;5043062;28;20048;-60
2023/05/28 10:33:59;;;;;;;12.93;5.35;;;;;;;;;;5043187;28;20234;-61
2023/05/28 10:36:25;;;;;;;10.50;4.53;;;;;;;;;;5046362;28;20021;-60
2023/05/28 10:38:53;;;;;;;10.53;5.07;;;;;;;;;;4984780;28;20034;-59
2023/05/28 10:41:19;;;;;;;12.80;4.88;;;;;;;;;;4984941;28;20252;-60
2023/05/28 10:43:45;;;;;;;7.85;4.13;;;;;;;;;;4984952;28;20414;-60
2023/05/28 10:46:11;;;;;;;10.80;4.70;;;;;;;;;;4984961;28;20034;-60
2023/05/28 10:48:40;;;;;;;9.40;5.05;;;;;;;;;;4984805;28;20035;-59
2023/05/28 10:51:06;;;;;;;12.45;5.32;;;;;;;;;;4984951;28;20593;-60
2023/05/28 10:53:32;;;;;;;8.60;4.50;;;;;;;;;;4985083;28;20172;-60
2023/05/28 10:55:57;;;;;;;9.98;5.13;;;;;;;;;;4951680;28;20038;-60
2023/05/28 10:58:22;;;;;;;9.00;4.40;;;;;;;;;;4984183;28;20038;-61
2023/05/28 11:00:47;;;;;;;8.60;4.90;;;;;;;;;;4984801;28;20500;-61
2023/05/28 11:03:13;;;;;;;7.70;4.70;;;;;;;;;;4984821;28;20036;-60
2023/05/28 11:05:39;;;;;;;8.50;4.63;;;;;;;;;;4984215;28;20474;-61
2023/05/28 11:08:04;;;;;;;9.25;5.05;;;;;;;;;;4984217;28;20034;-58
2023/05/28 11:10:30;;;;;;;12.40;5.63;;;;;;;;;;5031596;28;20039;-60
2023/05/28 11:12:55;;;;;;;9.57;4.95;;;;;;;;;;5011110;28;20158;-60
2023/05/28 11:15:21;;;;;;;12.77;4.47;;;;;;;;;;5046233;28;20441;-60
2023/05/28 11:17:46;;;;;;;9.48;5.05;;;;;;;;;;5046272;28;20029;-59
2023/05/28 11:20:18;;;;;;;9.60;5.25;;;;;;;;;;5046308;28;20367;-61
2023/05/28 11:22:43;;;;;;;10.27;5.00;;;;;;;;;;5046677;28;20548;-60
2023/05/28 11:25:09;;;;;;;7.97;5.13;;;;;;;;;;5046644;28;20147;-60
2023/05/28 11:27:36;;;;;;;10.45;4.93;;;;;;;;;;5028240;28;20027;-60
2023/05/28 11:30:22;;;;;;;8.18;4.25;;;;;;;;;;5046523;28;20464;-61
2023/05/28 11:32:48;;;;;;;7.43;4.80;;;;;;;;;;5045567;28;20083;-60
2023/05/28 11:35:14;;;;;;;9.18;4.80;;;;;;;;;;5045979;28;20044;-60
2023/05/28 11:37:40;;;;;;;7.78;4.93;;;;;;;;;;5045891;28;20464;-60
2023/05/28 11:40:10;;;;;;;6.40;4.90;;;;;;;;;;5046066;28;20103;-60
2023/05/28 11:42:35;;;;;;;8.20;4.85;;;;;;;;;;5045984;28;20045;-58
2023/05/28 11:45:01;;;;;;;6.55;4.88;;;;;;;;;;5045648;28;20114;-61
2023/05/28 11:47:26;;;;;;;8.23;5.22;;;;;;;;;;4993113;28;20039;-60
2023/05/28 11:49:52;;;;;;;9.77;5.40;;;;;;;;;;5045884;28;20031;-60
2023/05/28 11:52:18;;;;;;;10.32;4.38;;;;;;;;;;5045898;28;20025;-60
2023/05/28 11:54:45;;;;;;;9.80;4.93;;;;;;;;;;5045392;28;20116;-60
2023/05/28 11:57:10;;;;;;;8.18;5.10;;;;;;;;;;5045540;28;20103;-59
2023/05/28 11:59:36;;;;;;;10.80;5.43;;;;;;;;;;5045390;28;20056;-60
2023/05/28 12:02:15;;;;;;;15.35;5.00;;;;;;;;;;5026480;28;20347;-60
2023/05/28 12:04:40;;;;;;;;;;;;;;;;;;5045643;28;20036;-59
2023/05/28 12:07:05;;;;;;;8.23;5.03;;;;;;;;;;5044949;28;20027;-60
2023/05/28 12:09:32;;;;;;;8.33;4.63;;;;;;;;;;5045454;28;20028;-60
2023/05/28 12:12:16;;;;;;;9.38;5.32;;;;;;;;;;5045338;28;20278;-60
2023/05/28 12:14:44;;;;;;;8.40;5.60;;;;;;;;;;5009285;28;20036;-60
2023/05/28 12:17:10;;;;;;;8.52;5.38;;;;;;;;;;5044781;28;20052;-58
2023/05/28 12:19:35;;;;;;;7.57;5.25;;;;;;;;;;5044818;28;20031;-59
2023/05/28 12:22:02;;;;;;;8.00;4.45;;;;;;;;;;5044889;28;20408;-60
2023/05/28 12:24:27;;;;;;;8.02;4.70;;;;;;;;;;5045510;28;20123;-60
2023/05/28 12:26:53;;;;;;;9.68;5.32;;;;;;;;;;5045039;28;20461;-60
2023/05/28 12:29:18;;;;;;;7.80;5.20;;;;;;;;;;5009263;28;20099;-58
2023/05/28 12:31:43;;;;;;;7.50;5.00;;;;;;;;;;5044755;28;20027;-59
2023/05/28 12:34:08;;;;;;;9.47;4.73;;;;;;;;;;5045282;28;20021;-60
2023/05/28 12:36:34;;;;;;;14.15;5.35;;;;;;;;;;5045148;28;20060;-60
2023/05/28 12:38:59;;;;;;;9.77;4.75;;;;;;;;;;5044738;28;20457;-60
2023/05/28 12:41:25;;;;;;;7.97;4.88;;;;;;;;;;5044669;28;20532;-60
2023/05/28 12:43:50;;;;;;;11.10;5.15;;;;;;;;;;5044420;28;20113;-59
2023/05/28 12:46:15;;;;;;;10.53;4.90;;;;;;;;;;5044680;28;20028;-61
2023/05/28 12:48:41;;;;;;;7.10;4.53;;;;;;;;;;5044748;28;20376;-60
2023/05/28 12:51:06;;;;;;;6.80;5.00;;;;;;;;;;5044726;28;20744;-57
2023/05/28 12:53:31;;;;;;;8.43;4.73;;;;;;;;;;5044281;28;20021;-60
2023/05/28 12:55:56;;;;;;;8.90;5.00;;;;;;;;;;5043811;28;20304;-60
2023/05/28 12:58:23;;;;;;;8.53;5.00;;;;;;;;;;5043148;28;20024;-60
2023/05/28 13:00:49;;;;;;;11.20;5.38;;;;;;;;;;5044279;28;20243;-60
2023/05/28 13:03:14;;;;;;;8.70;5.00;;;;;;;;;;5043675;28;20021;-60
2023/05/28 13:05:39;;;;;;;8.30;5.53;;;;;;;;;;5044042;28;20372;-60
2023/05/28 13:08:05;;;;;;;7.50;5.27;;;;;;;;;;5044282;28;20025;-60
2023/05/28 13:10:30;;;;;;;8.05;4.88;;;;;;;;;;5008559;28;20238;-60
2023/05/28 13:12:55;;;;;;;10.18;5.22;;;;;;;;;;5043838;28;20184;-60
2023/05/28 13:15:21;;;;;;;8.73;5.47;;;;;;;;;;5043615;28;20055;-60
2023/05/28 13:17:46;;;;;;;10.75;4.85;;;;;;;;;;5043683;28;20243;-60
2023/05/28 13:20:12;;;;;;;10.55;5.28;;;;;;;;;;5043692;28;20456;-60
2023/05/28 13:22:38;;;;;;;6.57;4.80;;;;;;;;;;5026163;28;20025;-60
2023/05/28 13:25:04;;;;;;;10.77;4.90;;;;;;;;;;5043866;28;20479;-59
2023/05/28 13:27:30;;;;;;;8.15;4.90;;;;;;;;;;5025860;28;20017;-59
2023/05/28 13:29:55;;;;;;;9.20;4.95;;;;;;;;;;5043863;28;20142;-60
2023/05/28 13:32:21;;;;;;;7.03;5.20;;;;;;;;;;5043757;28;20046;-60
2023/05/28 13:34:46;;;;;;;7.87;5.17;;;;;;;;;;5043776;28;20112;-60
2023/05/28 13:37:11;;;;;;;10.80;4.55;;;;;;;;;;5043773;28;20726;-59
2023/05/28 13:39:37;;;;;;;6.50;4.67;;;;;;;;;;5043896;28;20028;-60
2023/05/28 13:42:03;;;;;;;12.70;5.65;;;;;;;;;;5043502;28;20461;-60
2023/05/28 13:44:28;;;;;;;9.15;5.22;;;;;;;;;;5043848;28;20021;-60
2023/05/28 13:46:54;;;;;;;6.25;4.40;;;;;;;;;;5043915;28;20497;-60
2023/05/28 13:49:19;;;;;;;11.82;4.82;;;;;;;;;;5043060;28;20102;-59
2023/05/28 13:51:45;;;;;;;12.45;4.93;;;;;;;;;;5043624;28;20087;-60
2023/05/28 13:54:10;;;;;;;9.02;4.78;;;;;;;;;;5043457;28;20074;-60
2023/05/28 13:56:36;;;;;;;12.40;5.10;;;;;;;;;;5042751;28;20383;-60
2023/05/28 13:59:01;;;;;;;8.95;5.22;;;;;;;;;;5042790;28;20036;-60
2023/05/28 14:01:26;;;;;;;10.23;5.10;;;;;;;;;;5043437;28;20316;-60
2023/05/28 14:03:51;;;;;;;8.73;4.43;;;;;;;;;;5043074;28;20399;-60
2023/05/28 14:06:17;;;;;;;11.43;5.20;;;;;;;;;;5042758;28;20041;-60
2023/05/28 14:08:42;;;;;;;7.13;5.10;;;;;;;;;;5043512;28;20099;-59
2023/05/28 14:11:07;;;;;;;11.70;4.40;;;;;;;;;;5047718;28;20107;-60
2023/05/28 14:13:33;;;;;;;8.30;5.07;;;;;;;;;;5047058;28;20532;-60
2023/05/28 14:15:58;;;;;;;8.27;4.88;;;;;;;;;;5047577;28;20408;-60
2023/05/28 14:18:23;;;;;;;7.80;5.30;;;;;;;;;;5047184;28;20028;-59
2023/05/28 14:20:49;;;;;;;11.23;4.78;;;;;;;;;;5029216;28;20452;-60
2023/05/28 14:23:14;;;;;;;6.47;5.30;;;;;;;;;;5046745;28;20025;-58
2023/05/28 14:25:39;;;;;;;8.52;5.20;;;;;;;;;;5046888;28;20020;-60
2023/05/28 14:28:05;;;;;;;7.87;4.80;;;;;;;;;;5046830;28;20381;-60
2023/05/28 14:30:30;;;;;;;12.97;4.80;;;;;;;;;;5046729;28;20249;-57